createdAt,value
2019-01-20T00:00:57.666Z,14.17
2019-01-20T00:03:24.531Z,16.30
2019-01-20T00:05:50.805Z,14.00
2019-01-20T00:08:17.400Z,16.60
2019-01-20T00:10:44.026Z,13.67
2019-01-20T00:13:10.665Z,14.70
2019-01-20T00:15:37.401Z,17.17
2019-01-20T00:18:03.782Z,16.03
2019-01-20T00:20:30.053Z,14.13
2019-01-20T00:22:56.710Z,13.20
2019-01-20T00:25:23.057Z,14.60
2019-01-20T00:27:49.812Z,15.63
2019-01-20T00:30:17.843Z,13.77
2019-01-20T00:32:44.482Z,15.77
2019-01-20T00:35:12.254Z,17.50
2019-01-20T00:37:39.903Z,18.83
2019-01-20T00:40:13.571Z,19.57
2019-01-20T00:42:39.882Z,16.97
2019-01-20T00:45:09.598Z,14.60
2019-01-20T00:47:35.869Z,13.80
2019-01-20T00:50:03.955Z,14.33
2019-01-20T00:52:32.510Z,16.63
2019-01-20T00:54:58.791Z,14.00
2019-01-20T00:57:25.417Z,17.63
2019-01-20T00:59:51.738Z,21.23
2019-01-20T01:02:19.936Z,20.70
2019-01-20T01:04:46.615Z,22.37
2019-01-20T01:07:13.288Z,20.50
2019-01-20T01:09:40.758Z,16.93
2019-01-20T01:12:07.022Z,14.17
2019-01-20T01:14:33.610Z,13.40
2019-01-20T01:16:59.945Z,13.23
2019-01-20T01:19:26.241Z,13.93
2019-01-20T01:21:52.742Z,13.83
2019-01-20T01:24:19.013Z,16.37
2019-01-20T01:26:45.644Z,14.47
2019-01-20T01:29:12.291Z,12.60
2019-01-20T01:31:38.558Z,15.00
2019-01-20T01:34:05.209Z,16.33
2019-01-20T01:36:31.483Z,12.97
2019-01-20T01:39:00.009Z,16.30
2019-01-20T01:41:26.307Z,15.07
2019-01-20T01:43:52.593Z,11.03
2019-01-20T01:46:19.222Z,14.67
2019-01-20T01:48:45.517Z,13.13
2019-01-20T01:51:11.829Z,15.30
2019-01-20T01:53:38.453Z,13.77
2019-01-20T01:56:05.061Z,14.67
2019-01-20T01:58:31.334Z,20.77
2019-01-20T02:00:57.594Z,15.07
2019-01-20T02:03:25.773Z,15.77
2019-01-20T02:05:52.043Z,15.07
2019-01-20T02:08:18.694Z,14.10
2019-01-20T02:10:44.970Z,14.23
2019-01-20T02:13:11.789Z,14.47
2019-01-20T02:15:38.446Z,14.80
2019-01-20T02:18:04.934Z,17.33
2019-01-20T02:20:31.670Z,18.57
2019-01-20T02:22:58.613Z,18.27
2019-01-20T02:25:25.237Z,16.87
2019-01-20T02:27:53.768Z,18.53
2019-01-20T02:30:21.971Z,16.03
2019-01-20T02:32:48.222Z,16.03
2019-01-20T02:35:14.618Z,17.73
2019-01-20T02:37:40.879Z,18.93
2019-01-20T02:40:10.370Z,17.40
2019-01-20T02:42:36.996Z,17.13
2019-01-20T02:45:04.949Z,18.90
2019-01-20T02:47:31.568Z,20.97
2019-01-20T02:49:58.198Z,18.07
2019-01-20T02:52:24.458Z,17.93
2019-01-20T02:54:51.216Z,16.53
2019-01-20T02:57:18.633Z,15.40
2019-01-20T02:59:45.546Z,16.43
2019-01-20T03:02:12.182Z,15.80
2019-01-20T03:04:38.833Z,14.43
2019-01-20T03:07:05.509Z,17.23
2019-01-20T03:09:31.838Z,15.60
2019-01-20T03:12:03.401Z,15.67
2019-01-20T03:14:26.605Z,17.17
2019-01-20T03:16:53.230Z,14.10
2019-01-20T03:19:19.633Z,17.07
2019-01-20T03:21:45.881Z,17.77
2019-01-20T03:24:12.142Z,20.00
2019-01-20T03:26:38.407Z,16.33
2019-01-20T03:29:05.014Z,12.93
2019-01-20T03:31:31.693Z,19.40
2019-01-20T03:33:58.310Z,17.23
2019-01-20T03:36:24.596Z,17.20
2019-01-20T03:38:50.862Z,14.57
2019-01-20T03:41:17.524Z,17.30
2019-01-20T03:43:44.196Z,18.97
2019-01-20T03:46:10.526Z,16.67
2019-01-20T03:48:37.143Z,18.47
2019-01-20T03:51:04.080Z,15.70
2019-01-20T03:53:30.742Z,17.17
2019-01-20T03:55:57.435Z,14.70
2019-01-20T03:58:23.705Z,17.57
2019-01-20T04:00:49.990Z,15.97
2019-01-20T04:03:16.267Z,17.67
2019-01-20T04:05:42.578Z,15.37
2019-01-20T04:08:09.194Z,15.60
2019-01-20T04:10:35.862Z,14.73
2019-01-20T04:13:02.544Z,16.77
2019-01-20T04:15:28.866Z,15.37
2019-01-20T04:17:55.130Z,14.70
2019-01-20T04:20:21.775Z,15.67
2019-01-20T04:22:48.185Z,15.40
2019-01-20T04:25:16.377Z,14.73
2019-01-20T04:27:43.084Z,18.13
2019-01-20T04:30:11.706Z,20.83
2019-01-20T04:32:38.323Z,18.10
2019-01-20T04:35:05.729Z,19.97
2019-01-20T04:37:31.985Z,18.07
2019-01-20T04:39:58.242Z,20.77
2019-01-20T04:42:28.930Z,18.70
2019-01-20T04:44:52.958Z,16.20
2019-01-20T04:47:19.649Z,17.47
2019-01-20T04:49:46.522Z,18.30
2019-01-20T04:52:12.842Z,18.73
2019-01-20T04:54:39.861Z,16.77
2019-01-20T04:57:06.184Z,15.07
2019-01-20T04:59:32.480Z,14.80
2019-01-20T05:01:58.790Z,21.40
2019-01-20T05:04:25.397Z,19.77
2019-01-20T05:06:52.035Z,19.20
2019-01-20T05:09:20.537Z,19.10
2019-01-20T05:11:47.178Z,17.73
2019-01-20T05:14:13.851Z,17.07
2019-01-20T05:16:40.078Z,19.83
2019-01-20T05:19:06.330Z,21.03
2019-01-20T05:21:32.874Z,19.20
2019-01-20T05:23:59.139Z,20.93
2019-01-20T05:26:25.740Z,19.03
2019-01-20T05:28:51.998Z,18.17
2019-01-20T05:31:18.281Z,17.63
2019-01-20T05:33:47.878Z,19.80
2019-01-20T05:36:14.545Z,22.47
2019-01-20T05:38:40.862Z,18.50
2019-01-20T05:41:07.453Z,23.27
2019-01-20T05:43:33.770Z,20.80
2019-01-20T05:46:00.091Z,19.60
2019-01-20T05:48:26.389Z,21.20
2019-01-20T05:50:53.073Z,20.23
2019-01-20T05:53:19.722Z,18.87
2019-01-20T05:55:46.015Z,17.40
2019-01-20T05:58:12.637Z,19.27
2019-01-20T06:00:38.902Z,17.37
2019-01-20T06:03:05.554Z,19.30
2019-01-20T06:05:31.827Z,18.60
2019-01-20T06:07:58.477Z,17.07
2019-01-20T06:10:25.186Z,18.17
2019-01-20T06:12:54.149Z,18.33
2019-01-20T06:15:21.286Z,18.50
2019-01-20T06:17:47.853Z,19.63
2019-01-20T06:20:14.720Z,20.07
2019-01-20T06:22:41.649Z,17.27
2019-01-20T06:25:08.776Z,18.07
2019-01-20T06:27:35.427Z,19.10
2019-01-20T06:30:03.997Z,17.27
2019-01-20T06:32:31.677Z,17.63
2019-01-20T06:34:57.940Z,17.33
2019-01-20T06:37:24.585Z,14.53
2019-01-20T06:39:51.494Z,18.40
2019-01-20T06:42:18.133Z,18.47
2019-01-20T06:44:44.398Z,18.17
2019-01-20T06:47:11.040Z,19.07
2019-01-20T06:49:37.649Z,16.10
2019-01-20T06:52:04.041Z,15.47
2019-01-20T06:54:30.973Z,17.03
2019-01-20T06:56:57.282Z,21.03
2019-01-20T06:59:23.898Z,17.10
2019-01-20T07:01:50.502Z,17.03
2019-01-20T07:04:17.129Z,19.57
2019-01-20T07:06:44.015Z,17.20
2019-01-20T07:09:10.695Z,15.90
2019-01-20T07:11:36.958Z,16.57
2019-01-20T07:14:03.360Z,15.80
2019-01-20T07:16:29.621Z,17.63
2019-01-20T07:18:55.910Z,18.47
2019-01-20T07:21:22.528Z,19.80
2019-01-20T07:23:49.177Z,21.67
2019-01-20T07:26:15.818Z,17.80
2019-01-20T07:28:42.104Z,19.10
2019-01-20T07:31:08.350Z,19.60
2019-01-20T07:33:34.638Z,17.73
2019-01-20T07:36:00.890Z,31.67
2019-01-20T07:38:27.521Z,20.20
2019-01-20T07:40:54.143Z,17.03
2019-01-20T07:43:20.786Z,18.67
2019-01-20T07:45:47.462Z,18.27
2019-01-20T07:48:13.685Z,19.10
2019-01-20T07:50:40.310Z,23.63
2019-01-20T07:53:06.590Z,18.73
2019-01-20T07:55:35.105Z,23.47
2019-01-20T07:58:01.749Z,20.37
2019-01-20T08:00:28.465Z,17.67
2019-01-20T08:02:54.968Z,16.43
2019-01-20T08:05:21.231Z,16.53
2019-01-20T08:07:48.053Z,19.87
2019-01-20T08:10:15.792Z,18.30
2019-01-20T08:12:42.149Z,18.13
2019-01-20T08:15:10.959Z,16.47
2019-01-20T08:17:37.599Z,16.13
2019-01-20T08:20:06.205Z,15.40
2019-01-20T08:22:32.486Z,18.87
2019-01-20T08:24:59.147Z,16.50
2019-01-20T08:27:25.770Z,15.80
2019-01-20T08:29:52.432Z,19.87
2019-01-20T08:32:19.082Z,19.07
2019-01-20T08:34:45.368Z,16.83
2019-01-20T08:37:11.646Z,19.60
2019-01-20T08:39:38.509Z,17.90
2019-01-20T08:42:05.117Z,17.43
2019-01-20T08:44:31.765Z,16.43
2019-01-20T08:46:58.781Z,15.83
2019-01-20T08:49:25.437Z,19.90
2019-01-20T08:51:52.084Z,18.60
2019-01-20T08:54:18.705Z,15.90
2019-01-20T08:56:44.945Z,16.17
2019-01-20T08:59:11.593Z,18.37
2019-01-20T09:01:38.213Z,16.90
2019-01-20T09:04:04.665Z,20.33
2019-01-20T09:06:32.823Z,16.27
2019-01-20T09:08:59.474Z,18.33
2019-01-20T09:11:26.870Z,17.40
2019-01-20T09:13:53.091Z,15.87
2019-01-20T09:16:19.359Z,16.50
2019-01-20T09:18:45.969Z,15.93
2019-01-20T09:21:12.633Z,16.90
2019-01-20T09:23:39.351Z,18.00
2019-01-20T09:26:06.020Z,15.63
2019-01-20T09:28:33.949Z,16.83
2019-01-20T09:31:00.359Z,17.57
2019-01-20T09:33:26.598Z,18.30
2019-01-20T09:35:53.555Z,18.70
2019-01-20T09:38:20.529Z,19.53
2019-01-20T09:40:47.192Z,17.63
2019-01-20T09:43:13.886Z,19.80
2019-01-20T09:45:40.825Z,19.33
2019-01-20T09:48:09.010Z,16.90
2019-01-20T09:50:35.673Z,15.27
2019-01-20T09:53:02.020Z,17.17
2019-01-20T09:55:28.979Z,21.63
2019-01-20T09:57:56.537Z,16.77
2019-01-20T10:00:27.661Z,16.80
2019-01-20T10:02:57.467Z,20.73
2019-01-20T10:05:24.133Z,17.23
2019-01-20T10:07:50.751Z,16.60
2019-01-20T10:10:17.506Z,16.70
2019-01-20T10:12:44.043Z,15.90
2019-01-20T10:15:12.089Z,18.13
2019-01-20T10:17:38.700Z,17.43
2019-01-20T10:20:10.166Z,15.73
2019-01-20T10:22:36.796Z,19.90
2019-01-20T10:25:04.222Z,19.03
2019-01-20T10:27:30.834Z,19.67
2019-01-20T10:29:57.486Z,19.10
2019-01-20T10:32:24.158Z,17.33
2019-01-20T10:34:51.837Z,20.27
2019-01-20T10:37:18.549Z,19.57
2019-01-20T10:39:45.077Z,20.10
2019-01-20T10:42:11.413Z,21.40
2019-01-20T10:44:37.694Z,19.20
2019-01-20T10:47:05.121Z,20.90
2019-01-20T10:49:31.374Z,20.90
2019-01-20T10:51:57.669Z,17.50
2019-01-20T10:54:25.197Z,19.07
2019-01-20T10:56:54.403Z,19.67
2019-01-20T10:59:21.159Z,18.90
2019-01-20T11:01:47.801Z,20.87
2019-01-20T11:04:15.570Z,18.37
2019-01-20T11:06:43.512Z,16.63
2019-01-20T11:09:10.202Z,22.17
2019-01-20T11:11:36.848Z,21.33
2019-01-20T11:14:09.359Z,20.17
2019-01-20T11:16:32.331Z,20.63
2019-01-20T11:18:58.971Z,22.27
2019-01-20T11:21:25.894Z,20.37
2019-01-20T11:23:52.770Z,15.57
2019-01-20T11:26:19.535Z,17.83
2019-01-20T11:28:46.171Z,19.97
2019-01-20T11:31:12.530Z,19.47
2019-01-20T11:33:38.829Z,17.60
2019-01-20T11:36:05.705Z,18.50
2019-01-20T11:38:32.349Z,20.80
2019-01-20T11:40:58.992Z,20.37
2019-01-20T11:43:25.257Z,21.33
2019-01-20T11:45:52.142Z,16.77
2019-01-20T11:48:18.992Z,17.90
2019-01-20T11:50:45.702Z,16.63
2019-01-20T11:53:12.313Z,18.47
2019-01-20T11:55:38.942Z,19.93
2019-01-20T11:58:07.371Z,16.90
2019-01-20T12:00:34.515Z,17.77
2019-01-20T12:03:02.172Z,15.07
2019-01-20T12:05:29.553Z,17.17
2019-01-20T12:07:55.806Z,19.40
2019-01-20T12:10:22.507Z,18.03
2019-01-20T12:12:53.455Z,16.13
2019-01-20T12:15:20.112Z,17.60
2019-01-20T12:17:46.925Z,18.13
2019-01-20T12:20:14.216Z,17.07
2019-01-20T12:22:42.358Z,18.67
2019-01-20T12:25:16.143Z,18.97
2019-01-20T12:27:42.426Z,14.90
2019-01-20T12:30:10.991Z,14.97
2019-01-20T12:32:38.621Z,16.67
2019-01-20T12:35:08.086Z,18.33
2019-01-20T12:37:34.707Z,14.30
2019-01-20T12:40:04.593Z,15.03
2019-01-20T12:42:30.893Z,19.27
2019-01-20T12:44:57.518Z,16.70
2019-01-20T12:47:24.175Z,18.00
2019-01-20T12:49:50.892Z,17.60
2019-01-20T12:52:17.578Z,17.67
2019-01-20T12:54:44.266Z,17.50
2019-01-20T12:57:11.353Z,17.37
2019-01-20T12:59:38.066Z,14.20
2019-01-20T13:02:04.738Z,17.50
2019-01-20T13:04:31.388Z,14.87
2019-01-20T13:06:58.009Z,13.27
2019-01-20T13:09:24.932Z,15.80
2019-01-20T13:11:51.558Z,13.00
2019-01-20T13:14:18.232Z,14.33
2019-01-20T13:16:44.924Z,16.57
2019-01-20T13:19:11.261Z,13.40
2019-01-20T13:21:37.823Z,13.77
2019-01-20T13:24:04.110Z,19.10
2019-01-20T13:26:30.798Z,16.60
2019-01-20T13:28:58.676Z,17.70
2019-01-20T13:31:25.729Z,14.60
2019-01-20T13:33:52.180Z,17.27
2019-01-20T13:36:18.901Z,17.23
2019-01-20T13:38:45.849Z,15.50
2019-01-20T13:41:13.091Z,14.60
2019-01-20T13:43:39.674Z,16.93
2019-01-20T13:46:06.353Z,16.03
2019-01-20T13:48:33.033Z,19.07
2019-01-20T13:50:59.454Z,16.93
2019-01-20T13:53:26.375Z,17.80
2019-01-20T13:55:53.036Z,19.97
2019-01-20T13:58:20.932Z,16.70
2019-01-20T14:00:47.612Z,16.83
2019-01-20T14:03:14.399Z,18.77
2019-01-20T14:05:40.705Z,18.63
2019-01-20T14:08:07.490Z,19.37
2019-01-20T14:10:33.802Z,20.67
2019-01-20T14:13:00.122Z,17.67
2019-01-20T14:15:26.821Z,18.87
2019-01-20T14:17:53.509Z,18.57
2019-01-20T14:20:21.540Z,19.77
2019-01-20T14:22:48.301Z,21.33
2019-01-20T14:25:16.026Z,17.37
2019-01-20T14:27:42.770Z,19.57
2019-01-20T14:30:11.566Z,19.47
2019-01-20T14:32:37.840Z,19.07
2019-01-20T14:35:06.852Z,21.73
2019-01-20T14:37:33.492Z,20.33
2019-01-20T14:40:00.243Z,19.13
2019-01-20T14:42:26.858Z,23.60
2019-01-20T14:44:53.225Z,21.97
2019-01-20T14:47:19.889Z,29.40
2019-01-20T14:49:46.160Z,27.90
2019-01-20T14:52:12.785Z,23.03
2019-01-20T14:54:39.051Z,23.50
2019-01-20T14:57:05.766Z,20.53
2019-01-20T14:59:32.446Z,17.07
2019-01-20T15:01:58.705Z,16.87
2019-01-20T15:04:25.345Z,19.57
2019-01-20T15:06:51.606Z,19.47
2019-01-20T15:09:18.250Z,24.45
2019-01-20T15:11:44.869Z,22.30
2019-01-20T15:14:11.523Z,20.73
2019-01-20T15:16:38.154Z,18.53
2019-01-20T15:19:04.826Z,19.70
2019-01-20T15:21:31.438Z,18.30
2019-01-20T15:23:58.339Z,17.10
2019-01-20T15:26:24.598Z,18.60
2019-01-20T15:28:51.258Z,19.63
2019-01-20T15:31:17.538Z,16.27
2019-01-20T15:33:44.250Z,15.83
2019-01-20T15:36:10.866Z,18.23
2019-01-20T15:38:37.533Z,18.50
2019-01-20T15:41:04.157Z,19.40
2019-01-20T15:43:30.786Z,20.03
2019-01-20T15:45:57.461Z,16.80
2019-01-20T15:48:24.082Z,15.63
2019-01-20T15:50:50.801Z,20.00
2019-01-20T15:53:17.430Z,20.67
2019-01-20T15:55:44.342Z,19.53
2019-01-20T15:58:10.978Z,17.73
2019-01-20T16:00:37.568Z,15.43
2019-01-20T16:03:04.335Z,17.47
2019-01-20T16:05:32.066Z,15.60
2019-01-20T16:07:58.725Z,18.10
2019-01-20T16:10:25.528Z,19.57
2019-01-20T16:12:51.837Z,17.27
2019-01-20T16:15:24.274Z,20.87
2019-01-20T16:26:40.453Z,19.60
2019-01-20T16:29:24.864Z,21.93
2019-01-20T16:46:56.373Z,16.67
2019-01-20T17:07:09.570Z,19.30
2019-01-20T17:12:54.768Z,21.30
2019-01-20T17:24:31.872Z,18.17
2019-01-20T17:27:09.662Z,15.80
2019-01-20T17:29:55.555Z,19.57
2019-01-20T17:35:06.940Z,17.23
2019-01-20T17:37:56.006Z,18.13
2019-01-20T17:43:19.642Z,20.63
2019-01-20T17:45:56.175Z,18.87
2019-01-20T17:54:16.626Z,20.53
2019-01-20T18:16:56.001Z,18.97
2019-01-20T18:19:22.679Z,23.57
2019-01-20T18:21:50.190Z,22.10
2019-01-20T18:24:16.877Z,22.17
2019-01-20T18:26:43.553Z,22.47
2019-01-20T18:29:09.874Z,19.17
2019-01-20T18:31:36.198Z,21.37
2019-01-20T18:34:03.082Z,22.17
2019-01-20T18:36:29.721Z,22.23
2019-01-20T18:38:56.520Z,20.40
2019-01-20T18:41:23.287Z,23.20
2019-01-20T18:43:49.553Z,21.33
2019-01-20T18:46:16.194Z,22.07
2019-01-20T18:48:42.882Z,23.50
2019-01-20T18:51:09.639Z,24.83
2019-01-20T18:53:36.593Z,25.33
2019-01-20T18:56:03.350Z,22.30
2019-01-20T19:26:54.986Z,28.73
2019-01-20T19:29:32.606Z,27.20
2019-01-20T19:43:51.889Z,23.57
2019-01-20T19:52:30.844Z,28.00
2019-01-20T19:55:02.317Z,27.10
2019-01-20T20:00:36.685Z,25.30
2019-01-20T20:03:26.236Z,28.20
2019-01-20T20:06:21.527Z,31.97
2019-01-20T20:09:14.698Z,30.17
2019-01-20T20:12:05.999Z,21.97
2019-01-20T20:14:43.776Z,23.80
2019-01-20T20:17:35.005Z,25.23
2019-01-20T20:20:14.120Z,23.40
2019-01-20T20:23:11.484Z,20.90
2019-01-20T20:26:02.911Z,20.93
2019-01-20T20:28:50.029Z,24.00
2019-01-20T20:31:34.118Z,23.63
2019-01-20T20:37:10.974Z,30.83
2019-01-20T20:39:52.501Z,24.77
2019-01-20T20:42:25.816Z,29.57
2019-01-20T20:50:55.040Z,24.37
2019-01-20T21:43:56.950Z,20.60
2019-01-20T21:46:26.139Z,24.33
2019-01-20T21:48:52.831Z,24.80
2019-01-20T21:51:19.961Z,25.70
2019-01-20T21:53:46.605Z,27.83
2019-01-20T21:56:15.330Z,25.50
2019-01-20T21:58:44.896Z,27.33
2019-01-20T22:01:12.125Z,27.20
2019-01-20T22:03:39.219Z,27.93
2019-01-20T22:06:06.706Z,26.77
2019-01-20T22:08:35.727Z,26.17
2019-01-20T22:11:02.887Z,23.67
2019-01-20T22:13:30.181Z,26.67
2019-01-20T22:15:57.051Z,23.37
2019-01-20T22:18:23.670Z,26.40
2019-01-20T22:20:51.218Z,27.47
2019-01-20T22:23:17.864Z,26.20
2019-01-20T22:25:44.189Z,24.77
2019-01-20T22:28:10.873Z,24.90
2019-01-20T22:30:37.572Z,23.53
2019-01-20T22:33:04.245Z,20.83
2019-01-20T22:35:30.528Z,27.17
2019-01-20T22:37:57.198Z,24.07
2019-01-20T22:40:23.616Z,24.80
2019-01-20T22:42:49.927Z,24.87
2019-01-20T22:45:17.814Z,24.87
2019-01-20T22:47:44.500Z,25.27
2019-01-20T22:50:12.036Z,24.67
2019-01-20T22:52:38.525Z,26.70
2019-01-20T22:55:07.849Z,25.67
2019-01-20T22:57:34.529Z,23.23
2019-01-20T23:00:01.055Z,23.67
2019-01-20T23:02:29.273Z,21.83
2019-01-20T23:04:55.946Z,24.60
2019-01-20T23:07:22.266Z,25.00
2019-01-20T23:09:48.589Z,27.83
2019-01-20T23:12:16.591Z,25.60
2019-01-20T23:14:43.561Z,24.67
2019-01-20T23:17:11.041Z,24.67
2019-01-20T23:19:37.364Z,25.50
2019-01-20T23:22:07.141Z,27.20
2019-01-20T23:24:33.818Z,24.93
2019-01-20T23:27:00.139Z,23.10
2019-01-20T23:29:26.455Z,25.30
2019-01-20T23:31:53.214Z,26.90
2019-01-20T23:34:19.893Z,25.93
2019-01-20T23:36:46.530Z,26.33
2019-01-20T23:39:13.225Z,28.23
2019-01-20T23:41:39.905Z,27.87
2019-01-20T23:44:06.228Z,29.50
2019-01-20T23:46:32.901Z,25.80
2019-01-20T23:48:59.225Z,26.83
2019-01-20T23:51:25.563Z,31.40
2019-01-20T23:53:52.370Z,27.13
2019-01-20T23:56:19.046Z,27.73
2019-01-20T23:58:45.713Z,26.80
